Terminal Aerodrome Forecast
Issued by NWS Grand Forks, ND

Current Version | Previous Version | Text Only | Print | Product List | Glossary On
Versions: 1 2 3 4 5 6 7 8 9 10 11 12 13 14 15 16
000
FTUS43 KFGF 282326
TAFGFK
TAF
KGFK 282326Z 2900/2924 35011KT P6SM SCT025
      TEMPO 2900/2901 BKN040
     FM290700 31005KT 5SM BR BKN020
      TEMPO 2910/2913 2SM BR BKN008
     FM291500 34006KT P6SM BKN025
     FM291700 36008KT P6SM BKN040=

USA.gov is the U.S. government's official web portal to all federal, state and local government web resources and services.